createdAt,value
2018-09-01T08:37:59.075Z,100.00
2018-09-01T08:39:39.543Z,100.00
2018-09-01T08:41:41.349Z,100.00
2018-09-01T08:43:12.330Z,100.00
2018-09-01T08:44:35.543Z,100.00
2018-09-01T08:46:02.112Z,100.00
2018-09-01T08:47:32.504Z,100.00
2018-09-01T08:48:55.381Z,100.00
2018-09-01T08:50:26.598Z,100.00
2018-09-01T08:51:54.000Z,100.00
2018-09-01T08:53:20.745Z,100.00
2018-09-01T08:54:47.260Z,100.00
2018-09-01T08:56:14.424Z,100.00
2018-09-01T08:57:41.921Z,100.00
2018-09-01T08:59:09.467Z,100.00
2018-09-01T09:00:32.218Z,100.00
2018-09-01T09:02:02.763Z,100.00
2018-09-01T09:03:26.279Z,100.00
2018-09-01T09:04:57.593Z,100.00
2018-09-01T09:06:20.995Z,100.00
2018-09-01T09:07:48.550Z,100.00
2018-09-01T09:09:19.966Z,100.00
2018-09-01T09:10:42.710Z,100.00
2018-09-01T09:12:14.104Z,100.00
2018-09-01T09:13:41.656Z,100.00
2018-09-01T09:15:07.940Z,100.00
2018-09-01T09:16:31.437Z,100.00
2018-09-01T09:17:58.660Z,100.00
2018-09-01T09:19:30.339Z,100.00
2018-09-01T09:20:53.231Z,100.00
2018-09-01T09:22:20.579Z,100.00
2018-09-01T09:23:48.239Z,100.00
2018-09-01T09:25:19.823Z,100.00
2018-09-01T09:26:43.276Z,100.00
2018-09-01T09:28:14.868Z,100.00
2018-09-01T09:29:38.293Z,100.00
2018-09-01T09:31:05.772Z,100.00
2018-09-01T09:32:33.236Z,100.00
2018-09-01T09:34:00.807Z,100.00
2018-09-01T09:35:28.287Z,100.00
2018-09-01T09:36:55.344Z,100.00
2018-09-01T09:39:53.424Z,100.00
2018-09-01T09:41:20.891Z,100.00
2018-09-01T09:42:48.192Z,100.00
2018-09-01T09:44:11.793Z,100.00
2018-09-01T09:45:43.254Z,100.00
2018-09-01T09:47:06.674Z,100.00
2018-09-01T09:48:38.241Z,100.00
2018-09-01T09:50:01.600Z,100.00
2018-09-01T09:51:28.566Z,100.00
2018-09-01T09:52:59.604Z,100.00
2018-09-01T09:54:22.961Z,100.00
2018-09-01T09:55:54.477Z,100.00
2018-09-01T09:57:17.830Z,100.00
2018-09-01T09:58:45.618Z,100.00
2018-09-01T10:00:11.864Z,100.00
2018-09-01T10:01:39.137Z,100.00
2018-09-01T10:03:09.653Z,100.00
2018-09-01T10:04:37.240Z,100.00
2018-09-01T10:05:59.995Z,100.00
2018-09-01T10:07:27.322Z,100.00
2018-09-01T10:08:54.312Z,100.00
2018-09-01T10:10:21.888Z,100.00
2018-09-01T10:11:53.357Z,100.00
2018-09-01T10:13:20.860Z,100.00
2018-09-01T10:14:44.362Z,100.00
2018-09-01T10:16:14.853Z,100.00
2018-09-01T10:17:38.383Z,100.00
2018-09-01T10:19:05.758Z,100.00
2018-09-01T10:20:33.474Z,100.00
2018-09-01T10:22:04.938Z,100.00
2018-09-01T10:23:32.468Z,100.00
2018-09-01T10:25:00.015Z,100.00
2018-09-01T10:26:23.353Z,100.00
2018-09-01T10:27:50.914Z,100.00
2018-09-01T10:29:21.536Z,100.00
2018-09-01T10:30:45.042Z,100.00
2018-09-01T10:32:12.542Z,100.00
2018-09-01T10:33:44.065Z,100.00
2018-09-01T10:35:07.563Z,100.00
2018-09-01T10:36:34.088Z,100.00
2018-09-01T10:38:05.783Z,100.00
2018-09-01T10:39:33.433Z,100.00
2018-09-01T10:41:00.854Z,100.00
2018-09-01T10:42:23.655Z,100.00
2018-09-01T10:43:55.271Z,100.00
2018-09-01T10:45:22.783Z,100.00
2018-09-01T10:46:45.271Z,100.00
2018-09-01T10:48:13.024Z,100.00
2018-09-01T10:49:44.553Z,100.00
2018-09-01T10:51:08.057Z,100.00
2018-09-01T10:52:38.358Z,100.00
2018-09-01T10:54:01.610Z,100.00
2018-09-01T10:55:29.153Z,100.00
2018-09-01T10:57:00.748Z,100.00
2018-09-01T10:58:24.152Z,100.00
2018-09-01T10:59:55.522Z,100.00
2018-09-01T11:01:18.829Z,100.00
2018-09-01T11:02:45.599Z,100.00
2018-09-01T11:04:15.801Z,100.00
2018-09-01T11:07:05.582Z,100.00
2018-09-01T11:08:37.074Z,100.00
2018-09-01T11:09:59.060Z,100.00
2018-09-01T11:11:26.573Z,100.00
2018-09-01T11:12:58.063Z,100.00
2018-09-01T11:14:21.542Z,100.00
2018-09-01T11:15:49.083Z,100.00
2018-09-01T11:17:19.237Z,100.00
2018-09-01T11:18:41.760Z,100.00
2018-09-01T11:20:09.401Z,100.00
2018-09-01T11:21:36.830Z,100.00
2018-09-01T11:23:04.365Z,100.00
2018-09-01T11:24:32.060Z,100.00
2018-09-01T11:25:59.492Z,100.00
2018-09-01T11:27:27.244Z,100.00
2018-09-01T11:28:54.569Z,100.00
2018-09-01T11:30:26.054Z,100.00
2018-09-01T11:31:53.714Z,100.00
2018-09-01T11:33:20.199Z,100.00
2018-09-01T11:34:47.746Z,100.00
2018-09-01T11:36:11.307Z,100.00
2018-09-01T11:37:38.073Z,100.00
2018-09-01T11:39:08.496Z,100.00
2018-09-01T11:40:35.851Z,100.00
2018-09-01T11:41:58.502Z,100.00
2018-09-01T11:43:25.370Z,100.00
2018-09-01T11:44:56.820Z,100.00
2018-09-01T11:46:20.335Z,100.00
2018-09-01T11:47:47.975Z,100.00
2018-09-01T11:49:15.559Z,99.84
2018-09-01T11:50:43.047Z,98.97
2018-09-01T11:52:13.632Z,94.90
2018-09-01T11:53:41.220Z,99.15
2018-09-01T11:55:08.583Z,98.29
2018-09-01T11:56:31.331Z,97.69
2018-09-01T11:58:01.672Z,93.87
2018-09-01T11:59:25.268Z,96.54
2018-09-01T12:00:52.578Z,97.45
2018-09-01T12:02:20.149Z,88.11
2018-09-01T12:03:51.613Z,90.34
2018-09-01T12:05:15.491Z,86.94
2018-09-01T12:06:42.813Z,86.58
2018-09-01T12:08:10.428Z,89.21
2018-09-01T12:09:42.126Z,88.38
2018-09-01T12:11:05.628Z,85.22
2018-09-01T12:12:36.179Z,82.27
2018-09-01T12:13:59.433Z,80.64
2018-09-01T12:15:30.111Z,86.11
2018-09-01T12:16:57.562Z,83.25
2018-09-01T12:18:25.066Z,88.10
2018-09-01T12:19:52.565Z,83.68
2018-09-01T12:21:20.053Z,87.29
2018-09-01T12:22:43.717Z,82.56
2018-09-01T12:24:15.329Z,82.64
2018-09-01T12:25:37.470Z,82.51
2018-09-01T12:27:09.084Z,85.77
2018-09-01T12:28:31.854Z,84.14
2018-09-01T12:30:04.385Z,79.62
2018-09-01T12:31:25.735Z,79.03
2018-09-01T12:32:52.201Z,77.71
2018-09-01T12:34:19.907Z,77.46
2018-09-01T12:35:50.049Z,78.53
2018-09-01T12:37:17.505Z,76.02
2018-09-01T12:38:41.106Z,82.85
2018-09-01T12:40:12.607Z,78.52
2018-09-01T12:41:36.248Z,78.88
2018-09-01T12:43:07.817Z,87.41
2018-09-01T12:44:34.977Z,89.05
2018-09-01T12:46:02.468Z,84.85
2018-09-01T12:47:26.158Z,80.31
2018-09-01T12:49:01.944Z,79.56
2018-09-01T12:50:20.147Z,82.20
2018-09-01T12:51:46.842Z,82.39
2018-09-01T12:53:17.445Z,84.51
2018-09-01T12:54:40.937Z,86.72
2018-09-01T12:56:08.555Z,87.39
2018-09-01T12:57:40.084Z,89.31
2018-09-01T12:59:06.499Z,88.27
2018-09-01T13:00:32.862Z,86.47
2018-09-01T13:01:56.294Z,82.74
2018-09-01T13:03:23.715Z,79.19
2018-09-01T13:04:55.386Z,83.73
2018-09-01T13:06:23.083Z,79.96
2018-09-01T13:07:46.604Z,79.39
2018-09-01T13:09:14.244Z,77.38
2018-09-01T13:10:40.865Z,77.40
2018-09-01T13:12:08.398Z,76.67
2018-09-01T13:13:40.145Z,79.91
2018-09-01T13:15:02.548Z,79.69
2018-09-01T13:16:34.218Z,78.46
2018-09-01T13:18:01.713Z,78.65
2018-09-01T13:19:28.838Z,78.95
2018-09-01T13:20:52.221Z,79.63
2018-09-01T13:22:22.969Z,82.48
2018-09-01T13:23:46.606Z,77.45
2018-09-01T13:25:14.338Z,77.74
2018-09-01T13:26:45.708Z,75.42
2018-09-01T13:28:13.278Z,76.83
2018-09-01T13:29:36.729Z,78.08
2018-09-01T13:31:08.301Z,78.70
2018-09-01T13:32:35.777Z,80.54
2018-09-01T13:33:58.228Z,80.18
2018-09-01T13:35:28.882Z,79.93
2018-09-01T13:36:52.185Z,81.73
2018-09-01T13:38:23.676Z,80.88
2018-09-01T13:39:47.084Z,83.20
2018-09-01T13:41:14.815Z,81.60
2018-09-01T13:42:42.365Z,82.36
2018-09-01T13:44:08.771Z,85.10
2018-09-01T13:45:36.325Z,82.36
2018-09-01T13:47:03.746Z,87.53
2018-09-01T13:48:30.023Z,83.72
2018-09-01T13:49:57.779Z,81.59
2018-09-01T13:51:25.229Z,82.44
2018-09-01T13:52:52.628Z,84.80
2018-09-01T13:54:18.881Z,83.19
2018-09-01T13:55:50.494Z,85.31
2018-09-01T13:57:18.074Z,85.91
2018-09-01T13:58:41.640Z,85.17
2018-09-01T14:00:09.242Z,84.81
2018-09-01T14:01:39.680Z,86.03
2018-09-01T14:03:01.985Z,86.91
2018-09-01T14:04:29.504Z,88.82
2018-09-01T14:05:57.005Z,90.30
2018-09-01T14:07:28.545Z,88.73
2018-09-01T14:08:52.134Z,85.46
2018-09-01T14:10:23.773Z,86.07
2018-09-01T14:11:47.282Z,85.00
2018-09-01T14:13:14.802Z,87.70
2018-09-01T14:14:45.161Z,85.11
2018-09-01T14:16:08.322Z,88.08
2018-09-01T14:17:34.683Z,88.47
2018-09-01T14:19:02.386Z,87.91
2018-09-01T14:20:29.399Z,86.89
2018-09-01T14:21:56.849Z,88.28
2018-09-01T14:23:24.220Z,88.27
2018-09-01T14:24:55.826Z,86.15
2018-09-01T14:26:23.347Z,91.26
2018-09-01T14:27:46.894Z,88.48
2018-09-01T14:29:14.357Z,93.25
2018-09-01T14:30:41.821Z,89.55
2018-09-01T14:32:12.370Z,87.77
2018-09-01T14:33:35.709Z,88.57
2018-09-01T14:35:06.315Z,90.18
2018-09-01T14:36:33.886Z,91.16
2018-09-01T14:38:00.798Z,92.96
2018-09-01T14:39:28.151Z,93.94
2018-09-01T14:40:50.900Z,92.89
2018-09-01T14:42:21.075Z,92.95
2018-09-01T14:43:48.583Z,94.27
2018-09-01T14:45:16.116Z,94.15
2018-09-01T14:46:38.740Z,97.01
2018-09-01T14:48:04.782Z,99.00
2018-09-01T14:49:36.251Z,95.92
2018-09-01T14:50:58.955Z,97.59
2018-09-01T14:52:29.540Z,97.07
2018-09-01T14:53:52.467Z,93.52
2018-09-01T14:55:19.978Z,92.31
2018-09-01T14:56:47.563Z,92.23
2018-09-01T14:58:19.146Z,89.85
2018-09-01T14:59:41.641Z,93.58
2018-09-01T15:01:09.174Z,95.13
2018-09-01T15:02:36.811Z,94.74
2018-09-01T15:04:04.321Z,92.66
2018-09-01T15:05:31.573Z,91.35
2018-09-01T15:07:02.977Z,91.38
2018-09-01T15:08:26.200Z,90.54
2018-09-01T15:09:53.038Z,92.19
2018-09-01T15:11:20.591Z,92.17
2018-09-01T15:12:52.003Z,91.84
2018-09-01T15:14:17.834Z,91.89
2018-09-01T15:15:41.188Z,94.13
2018-09-01T15:17:08.692Z,95.22
2018-09-01T15:18:35.094Z,97.03
2018-09-01T15:20:01.554Z,95.28
2018-09-01T15:21:28.222Z,96.33
2018-09-01T15:22:55.371Z,96.88
2018-09-01T15:24:25.933Z,96.42
2018-09-01T15:25:48.244Z,96.63
2018-09-01T15:27:19.623Z,98.46
2018-09-01T15:28:47.321Z,93.85
2018-09-01T15:30:10.900Z,94.53
2018-09-01T15:31:38.269Z,95.33
2018-09-01T15:33:09.801Z,97.96
2018-09-01T15:34:33.186Z,100.00
2018-09-01T15:36:00.750Z,97.03
2018-09-01T15:37:32.310Z,96.71
2018-09-01T15:38:59.826Z,94.47
2018-09-01T15:40:21.906Z,94.36
2018-09-01T15:41:53.459Z,97.11
2018-09-01T15:43:15.825Z,97.15
2018-09-01T15:44:43.158Z,94.15
2018-09-01T15:46:10.793Z,93.66
2018-09-01T15:47:42.339Z,96.66
2018-09-01T15:49:05.641Z,94.95
2018-09-01T15:50:37.149Z,94.39
2018-09-01T15:52:00.810Z,98.25
2018-09-01T15:53:27.862Z,95.68
2018-09-01T15:54:55.386Z,96.00
2018-09-01T15:56:22.781Z,95.86
2018-09-01T15:57:54.379Z,92.78
2018-09-01T15:59:21.767Z,94.66
2018-09-01T16:00:49.453Z,95.44
2018-09-01T16:02:12.755Z,95.13
2018-09-01T16:03:44.508Z,98.33
2018-09-01T16:05:11.893Z,97.62
2018-09-01T16:06:34.186Z,97.54
2018-09-01T16:08:01.622Z,96.76
2018-09-01T16:09:29.131Z,97.04
2018-09-01T16:11:00.430Z,96.50
2018-09-01T16:12:27.916Z,98.04
2018-09-01T16:13:51.289Z,96.76
2018-09-01T16:15:18.843Z,95.93
2018-09-01T16:16:47.396Z,96.75
2018-09-01T16:18:17.095Z,99.91
2018-09-01T16:19:40.733Z,100.00
2018-09-01T16:21:08.146Z,100.00
2018-09-01T16:22:35.578Z,99.13
2018-09-01T16:24:02.870Z,100.00
2018-09-01T16:25:34.349Z,100.00
2018-09-01T16:26:57.889Z,100.00
2018-09-01T16:28:29.398Z,100.00
2018-09-01T16:29:52.777Z,100.00
2018-09-01T16:31:24.410Z,100.00
2018-09-01T16:32:50.536Z,100.00
2018-09-01T16:34:14.080Z,100.00
2018-09-01T16:35:44.227Z,100.00
2018-09-01T16:37:07.703Z,98.23
2018-09-01T16:38:39.253Z,98.14
2018-09-01T16:40:06.865Z,100.00
2018-09-01T16:41:30.010Z,100.00
2018-09-01T16:42:57.479Z,100.00
2018-09-01T16:44:25.114Z,97.46
2018-09-01T16:45:52.545Z,99.32
2018-09-01T16:47:19.842Z,100.00
2018-09-01T16:48:47.497Z,100.00
2018-09-01T16:50:14.811Z,100.00
2018-09-01T16:51:42.389Z,100.00
2018-09-01T16:53:09.960Z,100.00
2018-09-01T16:54:37.379Z,100.00
2018-09-01T16:56:05.036Z,100.00
2018-09-01T16:57:32.313Z,100.00
2018-09-01T16:58:59.801Z,100.00
2018-09-01T17:00:31.298Z,100.00
2018-09-01T17:01:53.428Z,100.00
2018-09-01T17:03:20.889Z,100.00
2018-09-01T17:04:48.218Z,100.00
2018-09-01T17:06:19.735Z,100.00
2018-09-01T17:07:43.063Z,100.00
2018-09-01T17:09:09.083Z,100.00
2018-09-01T17:10:35.643Z,100.00
2018-09-01T17:12:07.169Z,100.00
2018-09-01T17:13:35.528Z,100.00
2018-09-01T17:15:01.012Z,100.00
2018-09-01T17:16:24.461Z,100.00
2018-09-01T17:17:51.770Z,100.00
2018-09-01T17:19:19.332Z,100.00
2018-09-01T17:20:50.958Z,100.00
2018-09-01T17:22:14.225Z,100.00
2018-09-01T17:23:41.592Z,100.00
2018-09-01T17:25:09.252Z,100.00
2018-09-01T17:26:40.707Z,100.00
2018-09-01T17:28:08.221Z,100.00
2018-09-01T17:29:31.601Z,100.00
2018-09-01T17:32:29.054Z,100.00
2018-09-01T17:33:51.659Z,100.00
2018-09-01T17:35:19.091Z,100.00
2018-09-01T17:36:49.706Z,100.00
2018-09-01T17:38:17.185Z,100.00
2018-09-01T17:39:40.736Z,100.00
2018-09-01T17:41:08.124Z,100.00
2018-09-01T17:42:35.705Z,100.00
2018-09-01T17:44:07.208Z,100.00
2018-09-01T17:45:29.856Z,100.00
2018-09-01T17:46:56.998Z,100.00
2018-09-01T17:48:24.457Z,100.00
2018-09-01T17:49:51.992Z,100.00
2018-09-01T17:51:19.245Z,100.00
2018-09-01T17:52:50.823Z,100.00
2018-09-01T17:54:14.190Z,100.00
2018-09-01T17:55:41.815Z,100.00
2018-09-01T17:57:09.423Z,100.00
2018-09-01T17:58:40.928Z,100.00
2018-09-01T18:00:04.406Z,100.00
2018-09-01T18:01:30.749Z,100.00
2018-09-01T18:03:01.223Z,100.00
2018-09-01T18:04:28.685Z,100.00
2018-09-01T18:05:55.983Z,100.00
2018-09-01T18:07:18.315Z,100.00
2018-09-01T18:08:45.633Z,100.00
2018-09-01T18:10:13.300Z,100.00
2018-09-01T18:11:44.736Z,100.00
2018-09-01T18:13:07.196Z,100.00
2018-09-01T18:14:34.503Z,100.00
2018-09-01T18:16:02.107Z,100.00
2018-09-01T18:17:29.515Z,100.00
2018-09-01T18:19:00.249Z,100.00
2018-09-01T18:20:22.565Z,100.00
2018-09-01T18:21:50.000Z,100.00
2018-09-01T18:23:17.619Z,100.00
2018-09-01T18:24:49.114Z,100.00
2018-09-01T18:26:17.693Z,100.00
2018-09-01T18:27:38.638Z,100.00
2018-09-01T18:29:06.219Z,100.00
2018-09-01T18:30:37.779Z,100.00
2018-09-01T18:32:00.102Z,100.00
2018-09-01T18:33:31.628Z,100.00
2018-09-01T18:34:55.061Z,100.00
2018-09-01T18:36:25.464Z,100.00
2018-09-01T18:37:48.819Z,100.00
2018-09-01T18:39:16.261Z,100.00
2018-09-01T18:40:46.698Z,100.00
2018-09-01T18:42:14.254Z,100.00
2018-09-01T18:43:37.657Z,100.00
2018-09-01T18:45:03.675Z,100.00
2018-09-01T18:46:29.801Z,100.00
2018-09-01T18:48:01.159Z,100.00
2018-09-01T18:49:27.882Z,100.00
2018-09-01T18:50:54.702Z,100.00
2018-09-01T18:52:21.129Z,100.00
2018-09-01T18:53:47.646Z,100.00
2018-09-01T18:55:10.947Z,100.00
2018-09-01T18:56:42.520Z,100.00
2018-09-01T18:58:05.899Z,100.00
2018-09-01T18:59:37.395Z,100.00
2018-09-01T19:01:00.628Z,100.00
2018-09-01T19:02:28.170Z,100.00
2018-09-01T19:03:59.616Z,100.00
2018-09-01T19:05:23.027Z,100.00
2018-09-01T19:06:54.484Z,100.00
2018-09-01T19:08:16.782Z,100.00
2018-09-01T19:09:44.422Z,100.00
2018-09-01T19:11:10.561Z,100.00
2018-09-01T19:12:40.620Z,100.00
2018-09-01T19:14:04.050Z,100.00
2018-09-01T19:15:35.411Z,100.00
2018-09-01T19:17:02.577Z,100.00
2018-09-01T19:18:29.106Z,100.00
2018-09-01T19:19:56.266Z,100.00
2018-09-01T19:21:19.413Z,100.00
2018-09-01T19:22:46.869Z,100.00
2018-09-01T19:24:14.235Z,100.00
2018-09-01T19:25:41.718Z,100.00
2018-09-01T19:27:12.302Z,100.00
2018-09-01T19:28:35.668Z,100.00
2018-09-01T19:30:02.113Z,100.00
2018-09-01T19:31:32.201Z,100.00
2018-09-01T19:32:58.844Z,100.00
2018-09-01T19:34:25.069Z,100.00
2018-09-01T19:35:48.664Z,100.00
2018-09-01T19:37:14.660Z,100.00
2018-09-01T19:38:40.821Z,100.00
2018-09-01T19:40:08.238Z,100.00
2018-09-01T19:41:39.697Z,100.00
2018-09-01T19:43:07.041Z,100.00
2018-09-01T19:44:30.245Z,100.00
2018-09-01T19:45:56.830Z,100.00
2018-09-01T19:47:28.275Z,100.00
2018-09-01T19:48:55.736Z,100.00
2018-09-01T19:50:19.260Z,100.00
2018-09-01T19:51:46.538Z,100.00
2018-09-01T19:53:13.845Z,100.00
2018-09-01T19:54:41.098Z,100.00
2018-09-01T19:56:12.525Z,100.00
2018-09-01T19:57:39.944Z,100.00
2018-09-01T19:59:07.048Z,100.00
2018-09-01T20:00:34.360Z,100.00
2018-09-01T20:01:57.868Z,100.00
2018-09-01T20:03:25.254Z,100.00
2018-09-01T20:04:56.402Z,100.00
2018-09-01T20:06:19.794Z,100.00
2018-09-01T20:07:45.939Z,100.00
2018-09-01T20:09:13.267Z,100.00
2018-09-01T20:10:44.689Z,100.00
2018-09-01T20:12:10.935Z,100.00
2018-09-01T20:13:36.986Z,100.00
2018-09-01T20:15:04.148Z,100.00
2018-09-01T20:16:30.190Z,100.00
2018-09-01T20:17:57.490Z,100.00
2018-09-01T20:19:20.813Z,100.00
2018-09-01T20:20:52.273Z,100.00
2018-09-01T20:22:19.625Z,100.00
2018-09-01T20:23:43.044Z,100.00
2018-09-01T20:25:14.627Z,100.00
2018-09-01T20:26:37.977Z,100.00
2018-09-01T20:28:09.177Z,100.00
2018-09-01T20:29:36.773Z,100.00
2018-09-01T20:31:00.150Z,100.00
2018-09-01T20:32:27.699Z,100.00
2018-09-01T20:33:58.258Z,100.00
2018-09-01T20:35:24.637Z,100.00
2018-09-01T20:36:50.781Z,100.00
2018-09-01T20:38:14.337Z,100.00
2018-09-01T20:39:41.658Z,100.00
2018-09-01T20:41:09.081Z,100.00
2018-09-01T20:42:35.607Z,100.00
2018-09-01T20:44:07.045Z,100.00
2018-09-01T20:45:30.138Z,100.00
2018-09-01T20:46:57.613Z,100.00
2018-09-01T20:48:25.126Z,100.00
2018-09-01T20:49:56.358Z,100.00
2018-09-01T20:51:19.697Z,100.00
2018-09-01T20:52:47.178Z,100.00
2018-09-01T20:54:18.550Z,100.00
2018-09-01T20:55:41.895Z,100.00
2018-09-01T20:57:09.301Z,100.00
2018-09-01T20:58:35.853Z,100.00
2018-09-01T21:00:07.172Z,100.00
2018-09-01T21:01:29.560Z,100.00
2018-09-01T21:02:56.877Z,100.00
2018-09-01T21:04:28.155Z,100.00
2018-09-01T21:05:51.412Z,100.00
2018-09-01T21:07:22.831Z,100.00
2018-09-01T21:08:46.289Z,100.00
2018-09-01T21:10:13.872Z,100.00
2018-09-01T21:11:45.151Z,100.00
2018-09-01T21:13:08.341Z,100.00
2018-09-01T21:14:35.073Z,100.00
2018-09-01T21:17:32.784Z,100.00
2018-09-01T21:18:59.507Z,100.00
2018-09-01T21:20:26.799Z,100.00
2018-09-01T21:21:50.054Z,100.00
2018-09-01T21:23:21.656Z,100.00
2018-09-01T21:24:49.145Z,100.00
2018-09-01T21:26:12.362Z,100.00
2018-09-01T21:27:39.620Z,100.00
2018-09-01T21:29:11.052Z,100.00
2018-09-01T21:30:34.462Z,100.00
2018-09-01T21:32:01.642Z,100.00
2018-09-01T21:33:29.024Z,100.00
2018-09-01T21:34:59.996Z,100.00
2018-09-01T21:36:27.409Z,100.00
2018-09-01T21:37:54.028Z,100.00
2018-09-01T21:39:16.187Z,100.00
2018-09-01T21:40:47.678Z,100.00
2018-09-01T21:42:13.599Z,100.00
2018-09-01T21:43:37.038Z,100.00
2018-09-01T21:45:08.212Z,100.00
2018-09-01T21:46:31.612Z,100.00
2018-09-01T21:48:02.910Z,100.00
2018-09-01T21:49:30.087Z,100.00
2018-09-01T21:50:57.299Z,100.00
2018-09-01T21:52:24.563Z,100.00
2018-09-01T21:53:52.176Z,100.00
2018-09-01T21:55:18.312Z,100.00
2018-09-01T21:56:41.457Z,100.00
2018-09-01T21:58:21.464Z,100.00
2018-09-01T21:59:44.689Z,100.00
2018-09-01T22:01:15.238Z,100.00
2018-09-01T22:02:42.611Z,100.00
2018-09-01T22:04:05.883Z,100.00
2018-09-01T22:05:37.261Z,100.00
2018-09-01T22:16:37.194Z,100.00
2018-09-01T22:18:41.483Z,100.00
2018-09-01T22:20:08.362Z,100.00
2018-09-01T22:21:30.436Z,100.00
2018-09-01T22:22:57.824Z,100.00
2018-09-01T22:24:28.521Z,100.00
2018-09-01T22:25:55.110Z,100.00
2018-09-01T22:27:18.421Z,100.00
2018-09-01T22:57:05.893Z,100.00
2018-09-01T22:58:28.302Z,100.00
2018-09-01T22:59:55.679Z,100.00
2018-09-01T23:01:22.884Z,100.00
2018-09-01T23:22:54.907Z,100.00
2018-09-01T23:24:17.563Z,100.00
2018-09-01T23:25:44.813Z,100.00
2018-09-01T23:27:16.147Z,100.00
2018-09-01T23:58:03.357Z,100.00
